Terminal Aerodrome Forecast
Issued by NWS Charleston, WV

Current Version | Previous Version | Graphics & Text | Print | Product List | Glossary On
Versions: 1 2 3 4 5 6 7 8 9 10 11 12 13 14 15 16 17 18 19 20 21 22 23 24 25 26
085
FTUS41 KRLX 132221 AAA
TAFCRW
TAF AMD
KCRW 132221Z 1322/1418 VRB03KT P6SM -RA OVC015
     FM140100 VRB03KT 4SM -RA SCT008 OVC012
      TEMPO 1401/1403 2SM -RA OVC008
     FM140300 05005KT 2SM -RA OVC008
     FM140600 04004KT 2SM -RA OVC004=

USA.gov is the U.S. government's official web portal to all federal, state and local government web resources and services.